createdAt,value
2019-04-07T00:01:16.822Z,121.65
2019-04-07T00:03:44.072Z,124.87
2019-04-07T00:06:11.327Z,120.17
2019-04-07T00:08:38.689Z,131.47
2019-04-07T00:11:06.046Z,119.45
2019-04-07T00:13:33.698Z,130.03
2019-04-07T00:16:03.638Z,130.12
2019-04-07T00:18:30.901Z,130.43
2019-04-07T00:20:58.517Z,131.15
2019-04-07T00:23:25.855Z,131.63
2019-04-07T00:25:53.092Z,127.92
2019-04-07T00:28:20.514Z,138.65
2019-04-07T00:30:48.879Z,142.68
2019-04-07T00:33:16.270Z,141.12
2019-04-07T00:35:43.623Z,144.32
2019-04-07T00:38:11.171Z,151.10
2019-04-07T00:40:38.416Z,146.37
2019-04-07T00:43:05.673Z,148.53
2019-04-07T00:45:33.741Z,144.22
2019-04-07T00:48:01.401Z,161.07
2019-04-07T00:50:30.527Z,155.87
2019-04-07T00:52:57.883Z,141.40
2019-04-07T00:55:27.686Z,147.35
2019-04-07T00:57:57.556Z,140.37
2019-04-07T01:00:29.354Z,161.85
2019-04-07T01:02:59.394Z,159.20
2019-04-07T01:05:35.319Z,153.97
2019-04-07T01:07:55.616Z,148.57
2019-04-07T01:10:22.850Z,143.45
2019-04-07T01:12:51.252Z,133.45
2019-04-07T01:15:22.177Z,134.55
2019-04-07T01:17:49.914Z,151.55
2019-04-07T01:20:17.410Z,145.95
2019-04-07T01:22:45.226Z,163.15
2019-04-07T01:25:12.585Z,166.28
2019-04-07T01:27:41.249Z,165.68
2019-04-07T01:30:09.625Z,170.35
2019-04-07T01:32:36.997Z,164.93
2019-04-07T01:35:10.134Z,170.80
2019-04-07T01:37:36.860Z,161.27
2019-04-07T01:40:06.410Z,157.93
2019-04-07T01:42:45.574Z,137.12
2019-04-07T01:45:23.757Z,145.75
2019-04-07T01:48:11.387Z,143.70
2019-04-07T01:50:58.236Z,143.68
2019-04-07T01:53:43.466Z,140.73
2019-04-07T01:56:15.672Z,150.55
2019-04-07T01:58:59.423Z,150.55
2019-04-07T02:01:46.639Z,156.52
2019-04-07T02:04:17.160Z,152.15
2019-04-07T02:06:55.409Z,154.42
2019-04-07T02:09:37.946Z,155.67
2019-04-07T02:15:08.533Z,154.93
2019-04-07T02:17:43.918Z,159.90
2019-04-07T02:20:14.457Z,167.20
2019-04-07T02:22:46.593Z,157.85
2019-04-07T02:25:21.941Z,149.97
2019-04-07T02:28:11.017Z,142.87
2019-04-07T02:30:45.976Z,148.50
2019-04-07T02:33:24.349Z,158.93
2019-04-07T02:36:12.831Z,140.00
2019-04-07T02:38:31.536Z,135.18
2019-04-07T02:41:00.572Z,148.40
2019-04-07T02:43:38.596Z,150.40
2019-04-07T02:46:24.279Z,169.05
2019-04-07T02:49:00.248Z,158.00
2019-04-07T02:51:29.723Z,168.85
2019-04-07T02:53:59.371Z,174.47
2019-04-07T02:56:32.448Z,157.75
2019-04-07T02:59:10.106Z,176.90
2019-04-07T03:01:45.417Z,183.70
2019-04-07T03:04:14.551Z,180.82
2019-04-07T03:06:48.292Z,184.00
2019-04-07T03:09:20.494Z,188.57
2019-04-07T03:12:10.976Z,202.18
2019-04-07T03:14:57.235Z,199.45
2019-04-07T03:17:29.713Z,198.47
2019-04-07T03:20:13.892Z,190.10
2019-04-07T03:22:48.717Z,193.07
2019-04-07T03:25:18.454Z,192.85
2019-04-07T03:27:57.214Z,177.20
2019-04-07T03:30:42.806Z,172.43
2019-04-07T03:33:21.219Z,167.10
2019-04-07T03:36:02.061Z,151.95
2019-04-07T03:38:31.499Z,151.32
2019-04-07T03:41:00.514Z,148.15
2019-04-07T03:43:30.390Z,150.97
2019-04-07T03:46:06.022Z,156.18
2019-04-07T03:48:41.646Z,173.85
2019-04-07T03:51:11.046Z,191.90
2019-04-07T03:53:56.365Z,190.43
2019-04-07T03:56:25.467Z,195.68
2019-04-07T03:59:00.272Z,175.07
2019-04-07T04:01:29.977Z,170.32
2019-04-07T04:04:15.804Z,168.75
2019-04-07T04:06:51.387Z,157.80
2019-04-07T04:09:40.760Z,196.80
2019-04-07T04:12:28.140Z,190.15
2019-04-07T04:15:06.731Z,143.50
2019-04-07T04:17:35.235Z,146.30
2019-04-07T04:20:04.101Z,149.75
2019-04-07T04:22:32.526Z,167.82
2019-04-07T04:25:01.077Z,172.27
2019-04-07T04:27:28.635Z,174.87
2019-04-07T04:29:56.739Z,172.97
2019-04-07T04:32:25.326Z,165.65
2019-04-07T04:34:54.682Z,159.70
2019-04-07T04:37:37.866Z,155.20
2019-04-07T04:39:51.291Z,142.20
2019-04-07T04:42:18.626Z,138.97
2019-04-07T04:44:45.892Z,128.38
2019-04-07T04:47:13.180Z,237.57
2019-04-07T04:49:43.546Z,424.85
2019-04-07T04:52:11.825Z,281.80
2019-04-07T04:54:39.064Z,136.25
2019-04-07T04:57:08.947Z,116.25
2019-04-07T04:59:35.348Z,120.25
2019-04-07T05:02:02.721Z,111.65
2019-04-07T05:04:30.050Z,120.10
2019-04-07T05:06:57.951Z,132.97
2019-04-07T05:09:39.968Z,157.70
2019-04-07T05:11:57.550Z,159.37
2019-04-07T05:14:25.777Z,132.37
2019-04-07T05:16:53.273Z,119.42
2019-04-07T05:19:20.930Z,110.03
2019-04-07T05:21:52.304Z,137.30
2019-04-07T05:24:19.580Z,125.75
2019-04-07T05:26:46.862Z,147.13
2019-04-07T05:29:14.723Z,142.80
2019-04-07T05:31:42.100Z,158.00
2019-04-07T05:34:09.349Z,167.72
2019-04-07T05:36:36.952Z,171.07
2019-04-07T05:39:06.556Z,168.85
2019-04-07T05:41:33.862Z,171.90
2019-04-07T05:44:01.348Z,165.15
2019-04-07T05:46:28.637Z,158.32
2019-04-07T05:48:56.543Z,156.93
2019-04-07T05:51:24.058Z,150.85
2019-04-07T05:53:51.660Z,145.43
2019-04-07T05:56:19.749Z,154.57
2019-04-07T05:58:47.239Z,160.80
2019-04-07T06:01:19.007Z,154.38
2019-04-07T06:03:44.572Z,149.75
2019-04-07T06:06:12.539Z,158.65
2019-04-07T06:08:43.091Z,160.50
2019-04-07T06:11:11.670Z,174.15
2019-04-07T06:13:39.106Z,169.32
2019-04-07T06:16:07.331Z,163.07
2019-04-07T06:18:35.794Z,149.40
2019-04-07T06:21:03.894Z,127.07
2019-04-07T06:23:31.247Z,118.37
2019-04-07T06:26:01.234Z,118.00
2019-04-07T06:28:31.603Z,107.03
2019-04-07T06:31:00.226Z,105.50
2019-04-07T06:33:30.529Z,100.92
2019-04-07T06:35:59.511Z,100.45
2019-04-07T06:38:34.203Z,90.97
2019-04-07T06:41:00.894Z,89.45
2019-04-07T06:43:40.076Z,80.05
2019-04-07T06:46:12.879Z,83.37
2019-04-07T06:49:00.414Z,76.85
2019-04-07T06:51:35.624Z,73.90
2019-04-07T06:54:04.772Z,76.25
2019-04-07T06:56:43.597Z,77.03
2019-04-07T06:59:16.467Z,78.15
2019-04-07T07:02:07.167Z,71.50
2019-04-07T07:04:41.558Z,66.82
2019-04-07T07:07:25.063Z,66.90
2019-04-07T07:10:00.982Z,67.43
2019-04-07T07:12:35.421Z,65.15
2019-04-07T07:15:04.443Z,64.37
2019-04-07T07:17:39.206Z,68.37
2019-04-07T07:20:11.288Z,66.47
2019-04-07T07:22:41.755Z,64.82
2019-04-07T07:25:11.250Z,63.48
2019-04-07T07:27:39.722Z,66.40
2019-04-07T07:30:07.819Z,61.63
2019-04-07T07:32:37.254Z,65.42
2019-04-07T07:35:06.363Z,63.13
2019-04-07T07:37:37.850Z,58.30
2019-04-07T07:40:08.477Z,60.77
2019-04-07T07:42:38.718Z,60.78
2019-04-07T07:45:10.751Z,55.73
2019-04-07T07:47:37.236Z,54.80
2019-04-07T07:50:08.194Z,53.33
2019-04-07T07:52:36.109Z,53.47
2019-04-07T07:55:04.249Z,49.88
2019-04-07T07:57:31.757Z,55.65
2019-04-07T08:00:05.106Z,53.67
2019-04-07T08:02:31.162Z,47.93
2019-04-07T08:04:59.325Z,50.33
2019-04-07T08:07:26.875Z,49.73
2019-04-07T08:10:05.371Z,53.67
2019-04-07T08:12:34.707Z,50.30
2019-04-07T08:15:03.290Z,49.15
2019-04-07T08:17:33.179Z,49.40
2019-04-07T08:20:01.063Z,51.80
2019-04-07T08:22:33.815Z,51.13
2019-04-07T08:25:02.327Z,46.77
2019-04-07T08:27:31.209Z,48.02
2019-04-07T08:29:58.971Z,49.27
2019-04-07T08:32:37.645Z,50.05
2019-04-07T08:35:06.893Z,46.48
2019-04-07T08:37:34.235Z,52.85
2019-04-07T08:40:07.117Z,49.55
2019-04-07T08:42:33.621Z,46.37
2019-04-07T08:45:03.301Z,43.53
2019-04-07T08:47:40.654Z,43.90
2019-04-07T08:50:10.498Z,48.50
2019-04-07T08:52:40.713Z,45.00
2019-04-07T08:55:07.947Z,52.55
2019-04-07T08:57:35.798Z,49.27
2019-04-07T09:00:06.264Z,46.47
2019-04-07T09:02:34.695Z,48.52
2019-04-07T09:05:02.709Z,47.23
2019-04-07T09:07:31.005Z,45.03
2019-04-07T09:09:59.869Z,44.00
2019-04-07T09:12:29.355Z,39.88
2019-04-07T09:14:56.976Z,43.10
2019-04-07T09:17:32.210Z,40.52
2019-04-07T09:20:06.128Z,41.77
2019-04-07T09:22:38.447Z,39.88
2019-04-07T09:25:26.150Z,44.18
2019-04-07T09:27:56.032Z,44.63
2019-04-07T09:30:42.203Z,41.95
2019-04-07T09:33:28.670Z,45.00
2019-04-07T09:36:00.695Z,38.28
2019-04-07T09:38:29.749Z,39.40
2019-04-07T09:41:12.124Z,47.62
2019-04-07T09:43:46.985Z,39.53
2019-04-07T09:46:32.717Z,39.67
2019-04-07T09:49:03.431Z,39.78
2019-04-07T09:51:41.400Z,33.13
2019-04-07T09:54:13.344Z,40.10
2019-04-07T09:56:42.877Z,38.05
2019-04-07T09:59:16.758Z,34.45
2019-04-07T10:01:55.066Z,38.95
2019-04-07T10:04:44.114Z,37.67
2019-04-07T10:07:15.132Z,32.93
2019-04-07T10:09:46.290Z,34.67
2019-04-07T10:12:29.129Z,34.88
2019-04-07T10:15:16.609Z,30.77
2019-04-07T10:17:51.796Z,32.30
2019-04-07T10:20:24.187Z,30.08
2019-04-07T10:25:43.505Z,28.45
2019-04-07T10:28:22.480Z,27.27
2019-04-07T10:30:51.798Z,28.17
2019-04-07T10:33:21.477Z,28.57
2019-04-07T10:35:53.053Z,30.32
2019-04-07T10:38:37.547Z,23.67
2019-04-07T10:41:06.798Z,23.90
2019-04-07T10:43:47.938Z,27.48
2019-04-07T10:46:27.106Z,28.15
2019-04-07T10:48:59.153Z,26.33
2019-04-07T10:51:34.355Z,27.45
2019-04-07T10:54:21.270Z,28.42
2019-04-07T10:56:56.387Z,28.23
2019-04-07T10:59:44.257Z,27.07
2019-04-07T11:02:13.472Z,26.33
2019-04-07T11:05:00.615Z,25.37
2019-04-07T11:07:35.507Z,27.30
2019-04-07T11:10:28.841Z,31.33
2019-04-07T11:12:58.209Z,42.10
2019-04-07T11:15:44.732Z,29.85
2019-04-07T11:18:17.533Z,25.08
2019-04-07T11:21:02.162Z,44.67
2019-04-07T11:23:40.389Z,24.85
2019-04-07T11:26:12.457Z,24.40
2019-04-07T11:28:53.769Z,27.52
2019-04-07T11:31:36.944Z,24.47
2019-04-07T11:34:09.717Z,27.58
2019-04-07T11:36:38.618Z,25.17
2019-04-07T11:39:27.463Z,24.20
2019-04-07T11:41:59.179Z,25.88
2019-04-07T11:44:41.085Z,25.80
2019-04-07T11:47:10.888Z,23.30
2019-04-07T11:49:42.547Z,24.52
2019-04-07T11:52:27.824Z,23.32
2019-04-07T11:55:13.888Z,26.60
2019-04-07T11:58:07.297Z,22.98
2019-04-07T12:00:28.108Z,24.92
2019-04-07T12:02:57.174Z,27.50
2019-04-07T12:05:29.343Z,25.05
2019-04-07T12:08:04.966Z,26.12
2019-04-07T12:10:37.769Z,24.60
2019-04-07T12:13:09.065Z,27.70
2019-04-07T12:15:42.037Z,21.07
2019-04-07T12:18:18.972Z,26.17
2019-04-07T12:20:53.943Z,25.80
2019-04-07T12:23:27.483Z,25.23
2019-04-07T12:25:56.878Z,23.02
2019-04-07T12:28:28.836Z,27.58
2019-04-07T12:31:06.457Z,20.53
2019-04-07T12:33:43.227Z,24.92
2019-04-07T12:36:12.968Z,21.80
2019-04-07T12:38:58.544Z,21.57
2019-04-07T12:41:45.513Z,22.22
2019-04-07T12:44:19.122Z,21.73
2019-04-07T12:46:51.011Z,22.15
2019-04-07T12:49:23.165Z,26.30
2019-04-07T12:51:55.795Z,22.22
2019-04-07T12:54:26.680Z,22.55
2019-04-07T12:56:57.747Z,22.90
2019-04-07T12:59:30.832Z,21.17
2019-04-07T13:02:05.555Z,21.23
2019-04-07T13:04:36.524Z,21.52
2019-04-07T13:07:07.919Z,26.20
2019-04-07T13:09:44.976Z,22.40
2019-04-07T13:12:31.227Z,22.98
2019-04-07T13:15:16.730Z,23.03
2019-04-07T13:17:49.431Z,20.90
2019-04-07T13:20:36.559Z,19.12
2019-04-07T13:23:12.280Z,20.70
2019-04-07T13:25:45.463Z,20.23
2019-04-07T13:28:24.599Z,23.47
2019-04-07T13:31:04.890Z,37.48
2019-04-07T13:33:52.215Z,24.45
2019-04-07T13:36:37.653Z,27.25
2019-04-07T13:39:12.970Z,25.68
2019-04-07T13:41:45.911Z,25.10
2019-04-07T13:44:22.796Z,28.97
2019-04-07T13:47:09.401Z,23.15
2019-04-07T13:50:16.940Z,22.00
2019-04-07T13:53:03.763Z,22.60
2019-04-07T13:55:40.917Z,22.65
2019-04-07T13:58:15.072Z,20.75
2019-04-07T14:00:50.557Z,15.88
2019-04-07T14:03:24.100Z,21.62
2019-04-07T14:05:53.546Z,21.77
2019-04-07T14:08:40.507Z,22.42
2019-04-07T14:11:11.001Z,24.67
2019-04-07T14:14:00.204Z,23.45
2019-04-07T14:16:45.040Z,24.63
2019-04-07T14:19:33.097Z,27.22
2019-04-07T14:22:19.378Z,24.00
2019-04-07T14:24:52.639Z,26.68
2019-04-07T14:27:25.177Z,21.65
2019-04-07T14:30:00.421Z,21.50
2019-04-07T14:32:45.326Z,25.55
2019-04-07T14:35:34.697Z,20.82
2019-04-07T14:38:22.291Z,21.57
2019-04-07T14:40:52.163Z,23.02
2019-04-07T14:43:27.049Z,22.87
2019-04-07T14:46:12.319Z,26.52
2019-04-07T14:49:03.397Z,25.15
2019-04-07T14:51:33.966Z,20.92
2019-04-07T14:54:04.315Z,29.50
2019-04-07T14:56:45.496Z,28.83
2019-04-07T14:59:14.872Z,27.73
2019-04-07T15:02:01.745Z,28.75
2019-04-07T15:04:31.274Z,30.82
2019-04-07T15:07:20.531Z,29.67
2019-04-07T15:09:53.484Z,32.03
2019-04-07T15:12:25.212Z,34.48
2019-04-07T15:15:02.117Z,30.40
2019-04-07T15:17:29.412Z,29.00
2019-04-07T15:20:00.046Z,30.12
2019-04-07T15:22:32.163Z,30.52
2019-04-07T15:25:00.168Z,25.77
2019-04-07T15:27:33.800Z,26.35
2019-04-07T15:30:02.365Z,29.47
2019-04-07T15:32:30.376Z,29.72
2019-04-07T15:35:05.074Z,27.37
2019-04-07T15:37:31.489Z,32.10
2019-04-07T15:40:00.930Z,31.12
2019-04-07T15:42:40.383Z,32.20
2019-04-07T15:45:15.075Z,30.23
2019-04-07T15:47:42.548Z,31.65
2019-04-07T15:50:15.891Z,27.62
2019-04-07T15:52:48.674Z,27.95
2019-04-07T15:55:16.750Z,25.77
2019-04-07T15:57:44.512Z,29.27
2019-04-07T16:03:07.417Z,29.02
2019-04-07T16:05:49.032Z,29.92
2019-04-07T16:08:20.074Z,34.95
2019-04-07T16:10:52.113Z,28.07
2019-04-07T16:13:36.192Z,30.05
2019-04-07T16:16:06.157Z,27.10
2019-04-07T16:18:37.040Z,31.35
2019-04-07T16:21:04.586Z,28.62
2019-04-07T16:23:31.738Z,26.85
2019-04-07T16:26:00.564Z,28.70
2019-04-07T16:28:29.591Z,25.52
2019-04-07T16:30:58.322Z,30.65
2019-04-07T16:33:32.314Z,30.37
2019-04-07T16:35:58.515Z,29.42
2019-04-07T16:38:28.291Z,29.00
2019-04-07T16:41:01.607Z,30.40
2019-04-07T16:43:32.181Z,29.60
2019-04-07T16:45:58.304Z,29.02
2019-04-07T16:48:26.132Z,33.23
2019-04-07T16:50:55.347Z,32.05
2019-04-07T16:53:22.511Z,33.40
2019-04-07T16:55:53.729Z,30.17
2019-04-07T16:58:22.436Z,33.45
2019-04-07T17:00:50.685Z,35.38
2019-04-07T17:03:17.960Z,31.82
2019-04-07T17:05:50.341Z,31.48
2019-04-07T17:08:19.344Z,34.30
2019-04-07T17:10:52.646Z,36.03
2019-04-07T17:13:32.099Z,34.63
2019-04-07T17:15:57.247Z,35.15
2019-04-07T17:18:51.066Z,32.35
2019-04-07T17:21:22.793Z,30.05
2019-04-07T17:23:56.893Z,37.95
2019-04-07T17:26:37.341Z,36.33
2019-04-07T17:29:04.376Z,39.15
2019-04-07T17:31:52.123Z,33.50
2019-04-07T17:34:18.433Z,38.38
2019-04-07T17:36:48.491Z,34.73
2019-04-07T17:39:24.561Z,36.42
2019-04-07T17:41:52.620Z,35.33
2019-04-07T17:44:23.340Z,33.42
2019-04-07T17:47:00.968Z,40.98
2019-04-07T17:49:35.561Z,37.23
2019-04-07T17:52:20.836Z,37.38
2019-04-07T17:55:03.032Z,36.00
2019-04-07T17:57:44.981Z,39.30
2019-04-07T18:00:21.660Z,40.98
2019-04-07T18:04:03.746Z,40.40
2019-04-07T18:06:00.388Z,39.20
2019-04-07T18:08:33.734Z,39.42
2019-04-07T18:11:02.393Z,33.60
2019-04-07T18:13:51.210Z,33.58
2019-04-07T18:16:39.648Z,38.40
2019-04-07T18:19:14.087Z,40.85
2019-04-07T18:22:06.513Z,38.45
2019-04-07T18:27:17.788Z,36.55
2019-04-07T18:29:48.033Z,40.30
2019-04-07T18:32:35.236Z,40.88
2019-04-07T18:35:04.446Z,36.97
2019-04-07T18:37:36.419Z,34.73
2019-04-07T18:40:04.646Z,39.40
2019-04-07T18:42:36.828Z,37.15
2019-04-07T18:45:23.520Z,41.10
2019-04-07T18:48:09.582Z,40.30
2019-04-07T18:50:50.053Z,40.43
2019-04-07T18:53:37.363Z,37.23
2019-04-07T18:56:22.640Z,46.30
2019-04-07T18:59:13.051Z,42.33
2019-04-07T19:01:42.691Z,38.40
2019-04-07T19:04:30.369Z,40.70
2019-04-07T19:07:07.749Z,40.78
2019-04-07T19:09:34.401Z,37.60
2019-04-07T19:12:23.180Z,41.23
2019-04-07T19:15:07.908Z,39.98
2019-04-07T19:17:50.422Z,41.60
2019-04-07T19:20:46.861Z,41.15
2019-04-07T19:23:21.605Z,40.98
2019-04-07T19:25:58.866Z,41.05
2019-04-07T19:28:36.911Z,38.70
2019-04-07T19:31:19.302Z,41.23
2019-04-07T19:34:04.820Z,41.25
2019-04-07T19:36:49.938Z,41.85
2019-04-07T19:39:23.605Z,40.58
2019-04-07T19:41:53.860Z,41.08
2019-04-07T19:44:34.013Z,44.45
2019-04-07T19:46:53.382Z,41.48
2019-04-07T19:49:33.143Z,40.33
2019-04-07T19:52:05.774Z,41.50
2019-04-07T19:54:33.765Z,42.95
2019-04-07T19:57:05.123Z,38.05
2019-04-07T19:59:33.991Z,43.85
2019-04-07T20:02:06.070Z,38.10
2019-04-07T20:04:57.033Z,43.68
2019-04-07T20:07:38.276Z,40.88
2019-04-07T20:10:08.651Z,47.78
2019-04-07T20:15:06.581Z,40.90
2019-04-07T20:17:32.426Z,48.28
2019-04-07T20:20:17.451Z,45.47
2019-04-07T20:23:04.369Z,42.15
2019-04-07T20:25:52.751Z,39.40
2019-04-07T20:28:30.386Z,42.73
2019-04-07T20:30:59.997Z,41.70
2019-04-07T20:33:34.310Z,45.60
2019-04-07T20:36:15.038Z,43.60
2019-04-07T20:38:46.499Z,45.80
2019-04-07T20:41:19.530Z,43.80
2019-04-07T20:43:59.049Z,40.85
2019-04-07T20:46:46.096Z,45.03
2019-04-07T20:49:40.247Z,43.25
2019-04-07T20:52:14.210Z,45.33
2019-04-07T20:54:49.676Z,47.00
2019-04-07T20:57:40.870Z,54.33
2019-04-07T21:00:38.226Z,43.80
2019-04-07T21:03:29.988Z,45.98
2019-04-07T21:06:06.665Z,43.78
2019-04-07T21:08:40.305Z,46.50
2019-04-07T21:11:13.229Z,45.25
2019-04-07T21:13:54.614Z,46.75
2019-04-07T21:16:45.153Z,45.33
2019-04-07T21:19:43.166Z,42.43
2019-04-07T21:22:20.917Z,46.92
2019-04-07T21:25:02.785Z,45.67
2019-04-07T21:27:40.835Z,48.05
2019-04-07T21:30:16.161Z,43.52
2019-04-07T21:33:09.276Z,47.17
2019-04-07T21:35:39.320Z,47.67
2019-04-07T21:38:24.506Z,47.00
2019-04-07T21:41:14.176Z,51.92
2019-04-07T21:43:46.979Z,46.68
2019-04-07T21:46:22.636Z,50.03
2019-04-07T21:48:57.979Z,48.98
2019-04-07T21:51:27.864Z,44.48
2019-04-07T21:54:04.016Z,50.28
2019-04-07T21:56:43.106Z,51.37
2019-04-07T21:59:31.434Z,54.23
2019-04-07T22:02:13.682Z,48.48
2019-04-07T22:04:54.545Z,49.63
2019-04-07T22:07:39.743Z,56.50
2019-04-07T22:10:13.686Z,53.63
2019-04-07T22:12:42.395Z,56.48
2019-04-07T22:15:13.914Z,57.43
2019-04-07T22:17:45.786Z,54.10
2019-04-07T22:20:17.616Z,54.73
2019-04-07T22:22:47.122Z,58.30
2019-04-07T22:25:18.843Z,56.63
2019-04-07T22:30:16.452Z,63.20
2019-04-07T22:32:44.868Z,60.40
2019-04-07T22:35:14.757Z,58.25
2019-04-07T22:37:44.082Z,59.75
2019-04-07T22:40:17.126Z,69.00
2019-04-07T22:42:47.602Z,67.50
2019-04-07T22:45:16.124Z,68.80
2019-04-07T22:47:44.712Z,67.90
2019-04-07T22:50:13.272Z,67.60
2019-04-07T22:52:41.896Z,74.03
2019-04-07T22:55:10.810Z,69.90
2019-04-07T22:57:39.224Z,69.77
2019-04-07T23:00:10.839Z,69.20
2019-04-07T23:02:42.925Z,69.53
2019-04-07T23:05:11.463Z,71.85
2019-04-07T23:07:40.936Z,72.20
2019-04-07T23:10:13.257Z,72.30
2019-04-07T23:12:44.458Z,71.85
2019-04-07T23:15:14.345Z,71.33
2019-04-07T23:17:43.009Z,73.37
2019-04-07T23:20:13.888Z,79.95
2019-04-07T23:22:44.728Z,77.25
2019-04-07T23:25:15.310Z,79.45
2019-04-07T23:27:46.256Z,82.27
2019-04-07T23:30:17.325Z,85.42
2019-04-07T23:32:45.856Z,82.30
2019-04-07T23:35:18.342Z,90.85
2019-04-07T23:40:15.187Z,85.00
2019-04-07T23:42:44.575Z,89.32
2019-04-07T23:45:14.413Z,86.53
2019-04-07T23:47:42.821Z,81.25
2019-04-07T23:50:11.500Z,86.90
2019-04-07T23:52:47.517Z,89.65
2019-04-07T23:55:17.158Z,82.50
2019-04-07T23:57:46.498Z,89.20
